FVMT weather

Mutoko Airport
Mutoko, Mashonaland East Province, Zimbabwe

Public forecast

Using degrees Celsius for public forecast. Weather courtesy of forecast.io.

METAR (pilot weather report)

Report is more than 2 hours old.

Closest report is Robert Gabriel Mugabe International Airport, 69.3 nm (128.3 km) WSW. Retrieved 2019/05/25 21:00 UTC (2 hours ago):

FVRG 252100Z 12006KT CAVOK 12/07 Q1027 NOSIG

TAF (pilot weather forecast)

Forecast is more than 12 hours old.

Closest forecast is Robert Gabriel Mugabe International Airport, 69.3 nm (128.3 km) WSW. Retrieved 2019/05/24 12:00 UTC (1 day ago):

TAF FVRG 241000Z 2412/2518 10008KT CAVOK